Aguanga, CA (92536)

8:38 AM PST on January 30, 2015 (GMT -0800)
Lake Riverside Estates | Change Station
CLOSE
Current Station
Personal Weather Station
Location: Aguanga, CA
Elevation: 3410 ft
Nearby Weather Stations

Elev 3410 ft 33.52 °N, 116.80 °W | Updated 1 second ago

Overcast
Overcast
49.1 °F
Feels Like 48 °F
N
4.0
Wind Variable Wind from NNE
Gusts 4.0 mph

Today
High -- | Low -- °F
--% Chance of Precip.
Yesterday
High -- | Low -- °F
Precip. -- in
6:44 AM 5:16 PM
Waxing Gibbous, 83% visible
Pressure 29.94 in
Visibility 10.0 miles
Clouds Mostly Cloudy 11000 ft
Windchill 48 °F
Dew Point 47 °F
Humidity 94%
Rainfall 0.00 in
Snow Depth Not available.
UV 1 out of 12
Pollen 1.60 out of 12
Air Quality Not available.
Flu Activity Not available.
METAR KF70 301615Z AUTO 01004KT 10SM BKN110 12/09 A2994 RMK AO1

More Conditions Fewer Conditions

Pressure 29.94 in
Visibility 10.0 miles
Clouds Mostly Cloudy 11000 ft
Windchill 48 °F
Dew Point 47 °F
Humidity 94%
Rainfall 0.00 in
Snow Depth Not available.
UV 1 out of 12
Pollen 1.60 out of 12
Air Quality Not available.
Flu Activity Not available.
METAR KF70 301615Z AUTO 01004KT 10SM BKN110 12/09 A2994 RMK AO1

More Conditions Fewer Conditions

10-Day Weather Forecast

Almanac

Astronomy

Jan. 30, 2015 Rise Set
Actual Time
Civil Twilight
Nautical Twilight
Astronomical Twilight
Moon
Length of Visible Light
Length of Day
Tomorrow will be .
, % of the Moon is Illuminated

Today's Extremes

State Highs State Lows

Community

WunderPhotos

Upload Photos

1,791,810 photos uploaded!

WunderBlogs® & News

Nearby

Air Quality

  Air Quality AQ Index Pollutant
Not available.

Snow Depth

Station Depth Elevation

Earthquake Activity

City Distance Mag. Time & Date
Minimum magnitude displayed is 2.5.

Coastal Water Temperatures

Place Temperature

Nearby Weather Stations